sensor_id;sensor_type;location;lat;lon;timestamp;temperature;humidity
47162;DHT22;32921;53.256;8.198;2023-02-21T00:02:10;9.40;99.90
47162;DHT22;32921;53.256;8.198;2023-02-21T00:04:55;9.50;99.90
47162;DHT22;32921;53.256;8.198;2023-02-21T00:07:39;9.40;99.90
47162;DHT22;32921;53.256;8.198;2023-02-21T00:10:23;9.40;99.90
47162;DHT22;32921;53.256;8.198;2023-02-21T00:13:08;9.40;99.90
47162;DHT22;32921;53.256;8.198;2023-02-21T00:15:52;9.40;99.90
47162;DHT22;32921;53.256;8.198;2023-02-21T00:18:36;9.40;99.90
47162;DHT22;32921;53.256;8.198;2023-02-21T00:21:22;9.40;99.90
47162;DHT22;32921;53.256;8.198;2023-02-21T00:24:06;9.40;99.90
47162;DHT22;32921;53.256;8.198;2023-02-21T00:26:51;9.40;99.90
47162;DHT22;32921;53.256;8.198;2023-02-21T00:29:35;9.40;99.90
47162;DHT22;32921;53.256;8.198;2023-02-21T00:32:19;9.40;99.90
47162;DHT22;32921;53.256;8.198;2023-02-21T00:35:03;9.30;99.90
47162;DHT22;32921;53.256;8.198;2023-02-21T00:37:51;9.30;99.90
47162;DHT22;32921;53.256;8.198;2023-02-21T00:40:35;9.30;99.90
47162;DHT22;32921;53.256;8.198;2023-02-21T00:43:26;9.40;99.90
47162;DHT22;32921;53.256;8.198;2023-02-21T00:46:10;9.30;99.90
47162;DHT22;32921;53.256;8.198;2023-02-21T00:48:54;9.30;99.90
47162;DHT22;32921;53.256;8.198;2023-02-21T00:51:38;9.30;99.90
47162;DHT22;32921;53.256;8.198;2023-02-21T00:54:22;9.30;99.90
47162;DHT22;32921;53.256;8.198;2023-02-21T00:57:06;9.30;99.90
47162;DHT22;32921;53.256;8.198;2023-02-21T00:59:50;9.30;99.90
47162;DHT22;32921;53.256;8.198;2023-02-21T01:02:34;9.30;99.90
47162;DHT22;32921;53.256;8.198;2023-02-21T01:05:18;9.30;99.90
47162;DHT22;32921;53.256;8.198;2023-02-21T01:08:02;9.30;99.90
47162;DHT22;32921;53.256;8.198;2023-02-21T01:10:46;9.30;99.90
47162;DHT22;32921;53.256;8.198;2023-02-21T01:13:30;9.30;99.90
47162;DHT22;32921;53.256;8.198;2023-02-21T01:16:14;9.30;99.90
47162;DHT22;32921;53.256;8.198;2023-02-21T01:18:58;9.30;99.90
47162;DHT22;32921;53.256;8.198;2023-02-21T01:21:42;9.30;99.90
47162;DHT22;32921;53.256;8.198;2023-02-21T01:24:26;9.30;99.90
47162;DHT22;32921;53.256;8.198;2023-02-21T01:27:10;9.20;99.90
47162;DHT22;32921;53.256;8.198;2023-02-21T01:29:54;9.20;99.90
47162;DHT22;32921;53.256;8.198;2023-02-21T01:32:38;9.30;99.90
47162;DHT22;32921;53.256;8.198;2023-02-21T01:35:22;9.20;99.90
47162;DHT22;32921;53.256;8.198;2023-02-21T01:38:06;9.30;99.90
47162;DHT22;32921;53.256;8.198;2023-02-21T01:40:50;9.30;99.90
47162;DHT22;32921;53.256;8.198;2023-02-21T01:43:34;9.20;99.90
47162;DHT22;32921;53.256;8.198;2023-02-21T01:46:20;9.20;99.90
47162;DHT22;32921;53.256;8.198;2023-02-21T01:49:15;9.20;99.90
47162;DHT22;32921;53.256;8.198;2023-02-21T01:52:02;9.20;99.90
47162;DHT22;32921;53.256;8.198;2023-02-21T01:54:51;9.20;99.90
47162;DHT22;32921;53.256;8.198;2023-02-21T01:57:36;9.30;99.90
47162;DHT22;32921;53.256;8.198;2023-02-21T02:00:34;9.20;99.90
47162;DHT22;32921;53.256;8.198;2023-02-21T02:03:19;9.20;99.90
47162;DHT22;32921;53.256;8.198;2023-02-21T02:06:07;9.30;99.90
47162;DHT22;32921;53.256;8.198;2023-02-21T02:08:51;9.30;99.90
47162;DHT22;32921;53.256;8.198;2023-02-21T02:12:10;9.30;99.90
47162;DHT22;32921;53.256;8.198;2023-02-21T02:23:05;9.30;99.90
47162;DHT22;32921;53.256;8.198;2023-02-21T02:37:28;9.30;99.90
47162;DHT22;32921;53.256;8.198;2023-02-21T02:43:15;9.30;99.90
47162;DHT22;32921;53.256;8.198;2023-02-21T02:45:46;9.30;99.90
47162;DHT22;32921;53.256;8.198;2023-02-21T02:48:43;9.30;99.90
47162;DHT22;32921;53.256;8.198;2023-02-21T02:51:12;9.30;99.90
47162;DHT22;32921;53.256;8.198;2023-02-21T02:53:38;9.30;99.90
47162;DHT22;32921;53.256;8.198;2023-02-21T02:56:09;9.40;99.90
47162;DHT22;32921;53.256;8.198;2023-02-21T02:58:45;9.40;99.90
47162;DHT22;32921;53.256;8.198;2023-02-21T03:07:12;9.30;99.90
47162;DHT22;32921;53.256;8.198;2023-02-21T03:12:47;9.40;99.90
47162;DHT22;32921;53.256;8.198;2023-02-21T03:15:26;9.30;99.90
47162;DHT22;32921;53.256;8.198;2023-02-21T03:17:58;9.30;99.90
47162;DHT22;32921;53.256;8.198;2023-02-21T03:20:26;9.30;99.90
47162;DHT22;32921;53.256;8.198;2023-02-21T03:22:53;9.30;99.90
47162;DHT22;32921;53.256;8.198;2023-02-21T03:25:21;9.30;99.90
47162;DHT22;32921;53.256;8.198;2023-02-21T03:27:49;9.30;99.90
47162;DHT22;32921;53.256;8.198;2023-02-21T03:30:16;9.30;99.90
47162;DHT22;32921;53.256;8.198;2023-02-21T03:32:47;9.30;99.90
47162;DHT22;32921;53.256;8.198;2023-02-21T03:35:14;9.30;99.90
47162;DHT22;32921;53.256;8.198;2023-02-21T03:37:46;9.30;99.90
47162;DHT22;32921;53.256;8.198;2023-02-21T03:40:13;9.30;99.90
47162;DHT22;32921;53.256;8.198;2023-02-21T03:42:40;9.30;99.90
47162;DHT22;32921;53.256;8.198;2023-02-21T03:45:05;9.30;99.90
47162;DHT22;32921;53.256;8.198;2023-02-21T03:47:31;9.30;99.90
47162;DHT22;32921;53.256;8.198;2023-02-21T03:49:57;9.30;99.90
47162;DHT22;32921;53.256;8.198;2023-02-21T03:52:22;9.30;99.90
47162;DHT22;32921;53.256;8.198;2023-02-21T03:54:48;9.30;99.90
47162;DHT22;32921;53.256;8.198;2023-02-21T03:57:14;9.30;99.90
47162;DHT22;32921;53.256;8.198;2023-02-21T03:59:40;9.30;99.90
47162;DHT22;32921;53.256;8.198;2023-02-21T04:02:06;9.30;99.90
47162;DHT22;32921;53.256;8.198;2023-02-21T04:04:31;9.30;99.90
47162;DHT22;32921;53.256;8.198;2023-02-21T04:06:57;9.30;99.90
47162;DHT22;32921;53.256;8.198;2023-02-21T04:09:23;9.30;99.90
47162;DHT22;32921;53.256;8.198;2023-02-21T04:11:50;9.20;99.90
47162;DHT22;32921;53.256;8.198;2023-02-21T04:14:16;9.20;99.90
47162;DHT22;32921;53.256;8.198;2023-02-21T04:16:42;9.30;99.90
47162;DHT22;32921;53.256;8.198;2023-02-21T04:19:07;9.30;99.90
47162;DHT22;32921;53.256;8.198;2023-02-21T04:21:33;9.30;99.90
47162;DHT22;32921;53.256;8.198;2023-02-21T04:23:59;9.20;99.90
47162;DHT22;32921;53.256;8.198;2023-02-21T04:26:24;9.30;99.90
47162;DHT22;32921;53.256;8.198;2023-02-21T04:28:51;9.30;99.90
47162;DHT22;32921;53.256;8.198;2023-02-21T04:31:17;9.30;99.90
47162;DHT22;32921;53.256;8.198;2023-02-21T04:33:43;9.30;99.90
47162;DHT22;32921;53.256;8.198;2023-02-21T04:36:09;9.20;99.90
47162;DHT22;32921;53.256;8.198;2023-02-21T04:38:35;9.30;99.90
47162;DHT22;32921;53.256;8.198;2023-02-21T04:41:02;9.30;99.90
47162;DHT22;32921;53.256;8.198;2023-02-21T04:43:28;9.30;99.90
47162;DHT22;32921;53.256;8.198;2023-02-21T04:45:54;9.20;99.90
47162;DHT22;32921;53.256;8.198;2023-02-21T04:48:19;9.20;99.90
47162;DHT22;32921;53.256;8.198;2023-02-21T04:50:45;9.20;99.90
47162;DHT22;32921;53.256;8.198;2023-02-21T04:53:11;9.20;99.90
47162;DHT22;32921;53.256;8.198;2023-02-21T04:55:36;9.30;99.90
47162;DHT22;32921;53.256;8.198;2023-02-21T04:58:02;9.20;99.90
47162;DHT22;32921;53.256;8.198;2023-02-21T05:00:28;9.30;99.90
47162;DHT22;32921;53.256;8.198;2023-02-21T05:02:53;9.20;99.90
47162;DHT22;32921;53.256;8.198;2023-02-21T05:05:19;9.20;99.90
47162;DHT22;32921;53.256;8.198;2023-02-21T05:07:44;9.20;99.90
47162;DHT22;32921;53.256;8.198;2023-02-21T05:10:10;9.20;99.90
47162;DHT22;32921;53.256;8.198;2023-02-21T05:12:37;9.20;99.90
47162;DHT22;32921;53.256;8.198;2023-02-21T05:15:05;9.20;99.90
47162;DHT22;32921;53.256;8.198;2023-02-21T05:17:31;9.20;99.90
47162;DHT22;32921;53.256;8.198;2023-02-21T05:19:57;9.20;99.90
47162;DHT22;32921;53.256;8.198;2023-02-21T05:22:23;9.20;99.90
47162;DHT22;32921;53.256;8.198;2023-02-21T05:24:48;9.20;99.90
47162;DHT22;32921;53.256;8.198;2023-02-21T05:27:15;9.20;99.90
47162;DHT22;32921;53.256;8.198;2023-02-21T05:29:52;9.20;99.90
47162;DHT22;32921;53.256;8.198;2023-02-21T05:32:19;9.20;99.90
47162;DHT22;32921;53.256;8.198;2023-02-21T05:34:46;9.20;99.90
47162;DHT22;32921;53.256;8.198;2023-02-21T05:37:13;9.20;99.90
47162;DHT22;32921;53.256;8.198;2023-02-21T05:39:39;9.20;99.90
47162;DHT22;32921;53.256;8.198;2023-02-21T05:42:04;9.20;99.90
47162;DHT22;32921;53.256;8.198;2023-02-21T05:44:30;9.20;99.90
47162;DHT22;32921;53.256;8.198;2023-02-21T05:46:55;9.20;99.90
47162;DHT22;32921;53.256;8.198;2023-02-21T05:49:21;9.20;99.90
47162;DHT22;32921;53.256;8.198;2023-02-21T05:51:47;9.20;99.90
47162;DHT22;32921;53.256;8.198;2023-02-21T05:54:18;9.20;99.90
47162;DHT22;32921;53.256;8.198;2023-02-21T05:56:45;9.20;99.90
47162;DHT22;32921;53.256;8.198;2023-02-21T05:59:12;9.20;99.90
47162;DHT22;32921;53.256;8.198;2023-02-21T06:01:38;9.20;99.90
47162;DHT22;32921;53.256;8.198;2023-02-21T06:04:04;9.20;99.90
47162;DHT22;32921;53.256;8.198;2023-02-21T06:06:32;9.20;99.90
47162;DHT22;32921;53.256;8.198;2023-02-21T06:08:58;9.20;99.90
47162;DHT22;32921;53.256;8.198;2023-02-21T06:11:26;9.20;99.90
47162;DHT22;32921;53.256;8.198;2023-02-21T06:13:57;9.20;99.90
47162;DHT22;32921;53.256;8.198;2023-02-21T06:16:24;9.20;99.90
47162;DHT22;32921;53.256;8.198;2023-02-21T06:18:55;9.20;99.90
47162;DHT22;32921;53.256;8.198;2023-02-21T06:21:20;9.20;99.90
47162;DHT22;32921;53.256;8.198;2023-02-21T06:23:46;9.20;99.90
47162;DHT22;32921;53.256;8.198;2023-02-21T06:26:12;9.20;99.90
47162;DHT22;32921;53.256;8.198;2023-02-21T06:28:38;9.10;99.90
47162;DHT22;32921;53.256;8.198;2023-02-21T06:31:04;9.20;99.90
47162;DHT22;32921;53.256;8.198;2023-02-21T06:33:30;9.20;99.90
47162;DHT22;32921;53.256;8.198;2023-02-21T06:35:56;9.20;99.90
47162;DHT22;32921;53.256;8.198;2023-02-21T06:38:22;9.20;99.90
47162;DHT22;32921;53.256;8.198;2023-02-21T06:40:47;9.10;99.90
47162;DHT22;32921;53.256;8.198;2023-02-21T06:43:13;9.20;99.90
47162;DHT22;32921;53.256;8.198;2023-02-21T06:45:39;9.20;99.90
47162;DHT22;32921;53.256;8.198;2023-02-21T06:48:04;9.20;99.90
47162;DHT22;32921;53.256;8.198;2023-02-21T06:50:31;9.20;99.90
47162;DHT22;32921;53.256;8.198;2023-02-21T06:52:58;9.10;99.90
47162;DHT22;32921;53.256;8.198;2023-02-21T06:55:24;9.10;99.90
47162;DHT22;32921;53.256;8.198;2023-02-21T06:57:49;9.10;99.90
47162;DHT22;32921;53.256;8.198;2023-02-21T07:00:16;9.10;99.90
47162;DHT22;32921;53.256;8.198;2023-02-21T07:02:42;9.20;99.90
47162;DHT22;32921;53.256;8.198;2023-02-21T07:05:09;9.10;99.90
47162;DHT22;32921;53.256;8.198;2023-02-21T07:07:34;9.10;99.90
47162;DHT22;32921;53.256;8.198;2023-02-21T07:10:00;9.10;99.90
47162;DHT22;32921;53.256;8.198;2023-02-21T07:12:25;9.10;99.90
47162;DHT22;32921;53.256;8.198;2023-02-21T07:14:52;9.10;99.90
47162;DHT22;32921;53.256;8.198;2023-02-21T07:17:18;9.10;99.90
47162;DHT22;32921;53.256;8.198;2023-02-21T07:19:43;9.10;99.90
47162;DHT22;32921;53.256;8.198;2023-02-21T07:22:09;9.10;99.90
47162;DHT22;32921;53.256;8.198;2023-02-21T07:24:34;9.10;99.90
47162;DHT22;32921;53.256;8.198;2023-02-21T07:27:00;9.10;99.90
47162;DHT22;32921;53.256;8.198;2023-02-21T07:29:25;9.10;99.90
47162;DHT22;32921;53.256;8.198;2023-02-21T07:31:51;9.10;99.90
47162;DHT22;32921;53.256;8.198;2023-02-21T07:34:17;9.10;99.90
47162;DHT22;32921;53.256;8.198;2023-02-21T07:36:44;9.10;99.90
47162;DHT22;32921;53.256;8.198;2023-02-21T07:39:10;9.10;99.90
47162;DHT22;32921;53.256;8.198;2023-02-21T07:41:36;9.10;99.90
47162;DHT22;32921;53.256;8.198;2023-02-21T07:44:01;9.10;99.90
47162;DHT22;32921;53.256;8.198;2023-02-21T07:46:27;9.10;99.90
47162;DHT22;32921;53.256;8.198;2023-02-21T07:48:53;9.20;99.90
47162;DHT22;32921;53.256;8.198;2023-02-21T07:51:19;9.20;99.90
47162;DHT22;32921;53.256;8.198;2023-02-21T07:53:45;9.20;99.90
47162;DHT22;32921;53.256;8.198;2023-02-21T07:56:10;9.20;99.90
47162;DHT22;32921;53.256;8.198;2023-02-21T07:58:36;9.20;99.90
47162;DHT22;32921;53.256;8.198;2023-02-21T08:01:03;9.20;99.90
47162;DHT22;32921;53.256;8.198;2023-02-21T08:03:29;9.30;99.90
47162;DHT22;32921;53.256;8.198;2023-02-21T08:05:55;9.20;99.90
47162;DHT22;32921;53.256;8.198;2023-02-21T08:08:20;9.20;99.90
47162;DHT22;32921;53.256;8.198;2023-02-21T08:10:47;9.20;99.90
47162;DHT22;32921;53.256;8.198;2023-02-21T08:13:13;9.30;99.90
47162;DHT22;32921;53.256;8.198;2023-02-21T08:15:39;9.30;99.90
47162;DHT22;32921;53.256;8.198;2023-02-21T08:18:04;9.30;99.90
47162;DHT22;32921;53.256;8.198;2023-02-21T08:20:30;9.40;99.90
47162;DHT22;32921;53.256;8.198;2023-02-21T08:22:56;9.40;99.90
47162;DHT22;32921;53.256;8.198;2023-02-21T08:25:22;9.40;99.90
47162;DHT22;32921;53.256;8.198;2023-02-21T08:27:47;9.40;99.90
47162;DHT22;32921;53.256;8.198;2023-02-21T08:30:18;9.40;99.90
47162;DHT22;32921;53.256;8.198;2023-02-21T08:32:43;9.40;99.90
47162;DHT22;32921;53.256;8.198;2023-02-21T08:35:14;9.50;99.90
47162;DHT22;32921;53.256;8.198;2023-02-21T08:37:46;9.50;99.90
47162;DHT22;32921;53.256;8.198;2023-02-21T08:40:12;9.40;99.90
47162;DHT22;32921;53.256;8.198;2023-02-21T08:42:38;9.50;99.90
47162;DHT22;32921;53.256;8.198;2023-02-21T08:45:04;9.50;99.90
47162;DHT22;32921;53.256;8.198;2023-02-21T08:47:33;9.50;99.90
47162;DHT22;32921;53.256;8.198;2023-02-21T08:50:00;9.50;99.90
47162;DHT22;32921;53.256;8.198;2023-02-21T08:52:26;9.60;99.90
47162;DHT22;32921;53.256;8.198;2023-02-21T08:54:52;9.60;99.90
47162;DHT22;32921;53.256;8.198;2023-02-21T08:57:17;9.60;99.90
47162;DHT22;32921;53.256;8.198;2023-02-21T08:59:43;9.70;99.90
47162;DHT22;32921;53.256;8.198;2023-02-21T09:02:17;9.70;99.90
47162;DHT22;32921;53.256;8.198;2023-02-21T09:04:43;9.60;99.90
47162;DHT22;32921;53.256;8.198;2023-02-21T09:07:15;9.60;99.90
47162;DHT22;32921;53.256;8.198;2023-02-21T09:09:40;9.70;99.90
47162;DHT22;32921;53.256;8.198;2023-02-21T09:12:07;9.70;99.90
47162;DHT22;32921;53.256;8.198;2023-02-21T09:14:34;9.80;99.90
47162;DHT22;32921;53.256;8.198;2023-02-21T09:17:00;9.80;99.90
47162;DHT22;32921;53.256;8.198;2023-02-21T09:19:25;9.80;99.90
47162;DHT22;32921;53.256;8.198;2023-02-21T09:21:51;9.90;99.90
47162;DHT22;32921;53.256;8.198;2023-02-21T09:24:20;10.00;99.90
47162;DHT22;32921;53.256;8.198;2023-02-21T09:26:50;10.00;99.90
47162;DHT22;32921;53.256;8.198;2023-02-21T09:29:21;10.10;99.90
47162;DHT22;32921;53.256;8.198;2023-02-21T09:31:48;10.10;99.90
47162;DHT22;32921;53.256;8.198;2023-02-21T09:34:13;10.20;99.90
47162;DHT22;32921;53.256;8.198;2023-02-21T09:36:39;10.20;99.90
47162;DHT22;32921;53.256;8.198;2023-02-21T09:39:05;10.20;99.90
47162;DHT22;32921;53.256;8.198;2023-02-21T09:41:31;10.20;99.90
47162;DHT22;32921;53.256;8.198;2023-02-21T09:43:57;10.30;99.90
47162;DHT22;32921;53.256;8.198;2023-02-21T09:46:44;10.30;99.90
47162;DHT22;32921;53.256;8.198;2023-02-21T09:49:14;10.20;99.90
47162;DHT22;32921;53.256;8.198;2023-02-21T09:51:42;10.20;99.90
47162;DHT22;32921;53.256;8.198;2023-02-21T09:54:31;10.20;99.90
47162;DHT22;32921;53.256;8.198;2023-02-21T09:57:00;10.20;99.90
47162;DHT22;32921;53.256;8.198;2023-02-21T09:59:26;10.30;99.90
47162;DHT22;32921;53.256;8.198;2023-02-21T10:02:00;10.40;99.90
47162;DHT22;32921;53.256;8.198;2023-02-21T10:04:52;10.50;99.90
47162;DHT22;32921;53.256;8.198;2023-02-21T10:07:43;10.60;99.90
47162;DHT22;32921;53.256;8.198;2023-02-21T10:10:38;10.80;99.90
47162;DHT22;32921;53.256;8.198;2023-02-21T10:13:38;10.60;99.90
47162;DHT22;32921;53.256;8.198;2023-02-21T10:16:14;10.70;99.90
47162;DHT22;32921;53.256;8.198;2023-02-21T10:18:47;10.70;99.90
47162;DHT22;32921;53.256;8.198;2023-02-21T10:21:29;10.80;99.90
47162;DHT22;32921;53.256;8.198;2023-02-21T10:23:56;10.80;99.90
47162;DHT22;32921;53.256;8.198;2023-02-21T10:26:27;10.90;99.90
47162;DHT22;32921;53.256;8.198;2023-02-21T10:28:53;10.80;99.90
47162;DHT22;32921;53.256;8.198;2023-02-21T10:31:35;10.80;99.90
47162;DHT22;32921;53.256;8.198;2023-02-21T10:34:04;10.70;99.90
47162;DHT22;32921;53.256;8.198;2023-02-21T10:36:32;10.70;99.90
47162;DHT22;32921;53.256;8.198;2023-02-21T10:39:20;10.60;99.90
47162;DHT22;32921;53.256;8.198;2023-02-21T10:41:47;10.60;99.90
47162;DHT22;32921;53.256;8.198;2023-02-21T10:44:24;10.60;99.90
47162;DHT22;32921;53.256;8.198;2023-02-21T10:47:01;10.70;99.90
47162;DHT22;32921;53.256;8.198;2023-02-21T10:49:39;10.60;99.90
47162;DHT22;32921;53.256;8.198;2023-02-21T10:52:12;10.60;99.90
47162;DHT22;32921;53.256;8.198;2023-02-21T10:54:39;10.70;99.90
47162;DHT22;32921;53.256;8.198;2023-02-21T10:57:11;10.60;99.90
47162;DHT22;32921;53.256;8.198;2023-02-21T10:59:42;10.50;99.90
47162;DHT22;32921;53.256;8.198;2023-02-21T11:04:52;10.50;99.90
47162;DHT22;32921;53.256;8.198;2023-02-21T11:07:18;10.40;99.90
47162;DHT22;32921;53.256;8.198;2023-02-21T11:09:45;10.40;99.90
47162;DHT22;32921;53.256;8.198;2023-02-21T11:17:29;10.60;99.90
47162;DHT22;32921;53.256;8.198;2023-02-21T11:22:34;10.60;99.90
47162;DHT22;32921;53.256;8.198;2023-02-21T11:25:03;10.60;99.90
47162;DHT22;32921;53.256;8.198;2023-02-21T11:27:34;10.70;99.90
47162;DHT22;32921;53.256;8.198;2023-02-21T11:30:03;10.60;99.90
47162;DHT22;32921;53.256;8.198;2023-02-21T11:32:37;10.90;99.90
47162;DHT22;32921;53.256;8.198;2023-02-21T11:37:51;11.00;99.90
47162;DHT22;32921;53.256;8.198;2023-02-21T11:40:26;11.10;99.90
47162;DHT22;32921;53.256;8.198;2023-02-21T11:45:40;11.00;99.90
47162;DHT22;32921;53.256;8.198;2023-02-21T11:48:13;11.00;99.90
47162;DHT22;32921;53.256;8.198;2023-02-21T11:50:48;11.00;99.90
47162;DHT22;32921;53.256;8.198;2023-02-21T11:53:29;11.00;99.90
47162;DHT22;32921;53.256;8.198;2023-02-21T12:05:01;11.00;99.90
47162;DHT22;32921;53.256;8.198;2023-02-21T12:13:09;11.00;99.90
47162;DHT22;32921;53.256;8.198;2023-02-21T12:15:59;11.10;99.90
47162;DHT22;32921;53.256;8.198;2023-02-21T12:35:53;11.20;99.90
47162;DHT22;32921;53.256;8.198;2023-02-21T12:38:38;11.20;99.90
47162;DHT22;32921;53.256;8.198;2023-02-21T12:41:37;11.30;99.90
47162;DHT22;32921;53.256;8.198;2023-02-21T12:47:11;11.20;99.90
47162;DHT22;32921;53.256;8.198;2023-02-21T12:49:44;11.20;99.90
47162;DHT22;32921;53.256;8.198;2023-02-21T12:55:00;11.40;99.90
47162;DHT22;32921;53.256;8.198;2023-02-21T13:00:11;11.60;99.90
47162;DHT22;32921;53.256;8.198;2023-02-21T13:05:44;11.80;99.90
47162;DHT22;32921;53.256;8.198;2023-02-21T13:08:18;12.00;99.90
47162;DHT22;32921;53.256;8.198;2023-02-21T13:11:14;12.10;99.90
47162;DHT22;32921;53.256;8.198;2023-02-21T13:13:41;12.00;99.90
47162;DHT22;32921;53.256;8.198;2023-02-21T13:16:08;12.00;99.90
47162;DHT22;32921;53.256;8.198;2023-02-21T13:18:40;11.80;99.90
47162;DHT22;32921;53.256;8.198;2023-02-21T13:24:26;11.80;99.90
47162;DHT22;32921;53.256;8.198;2023-02-21T13:29:33;11.80;99.90
47162;DHT22;32921;53.256;8.198;2023-02-21T13:32:12;11.70;99.90
47162;DHT22;32921;53.256;8.198;2023-02-21T13:34:45;11.60;99.90
47162;DHT22;32921;53.256;8.198;2023-02-21T13:37:17;11.50;99.90
47162;DHT22;32921;53.256;8.198;2023-02-21T13:39:48;11.50;99.90
47162;DHT22;32921;53.256;8.198;2023-02-21T13:42:21;11.60;99.90
47162;DHT22;32921;53.256;8.198;2023-02-21T13:45:34;11.60;99.90
47162;DHT22;32921;53.256;8.198;2023-02-21T13:55:34;11.50;99.90
47162;DHT22;32921;53.256;8.198;2023-02-21T14:08:26;11.60;99.90
47162;DHT22;32921;53.256;8.198;2023-02-21T14:10:57;11.70;99.90
47162;DHT22;32921;53.256;8.198;2023-02-21T14:13:38;11.70;99.90
47162;DHT22;32921;53.256;8.198;2023-02-21T14:18:39;11.70;99.90
47162;DHT22;32921;53.256;8.198;2023-02-21T14:21:12;11.70;99.90
47162;DHT22;32921;53.256;8.198;2023-02-21T14:23:57;11.60;99.90
47162;DHT22;32921;53.256;8.198;2023-02-21T14:34:14;11.60;99.90
47162;DHT22;32921;53.256;8.198;2023-02-21T14:36:42;11.70;99.90
47162;DHT22;32921;53.256;8.198;2023-02-21T14:39:08;11.70;99.90
47162;DHT22;32921;53.256;8.198;2023-02-21T14:45:06;11.50;99.90
47162;DHT22;32921;53.256;8.198;2023-02-21T14:48:12;11.50;99.90
47162;DHT22;32921;53.256;8.198;2023-02-21T15:04:35;11.80;99.90
47162;DHT22;32921;53.256;8.198;2023-02-21T15:09:39;11.60;99.90
47162;DHT22;32921;53.256;8.198;2023-02-21T15:12:09;11.60;99.90
47162;DHT22;32921;53.256;8.198;2023-02-21T15:14:47;11.50;99.90
47162;DHT22;32921;53.256;8.198;2023-02-21T15:17:21;11.50;99.90
47162;DHT22;32921;53.256;8.198;2023-02-21T15:20:04;11.40;99.90
47162;DHT22;32921;53.256;8.198;2023-02-21T15:22:31;11.40;99.90
47162;DHT22;32921;53.256;8.198;2023-02-21T15:30:07;11.40;99.90
47162;DHT22;32921;53.256;8.198;2023-02-21T15:32:37;11.30;99.90
47162;DHT22;32921;53.256;8.198;2023-02-21T15:35:06;11.30;99.90
47162;DHT22;32921;53.256;8.198;2023-02-21T15:37:34;11.20;99.90
47162;DHT22;32921;53.256;8.198;2023-02-21T15:40:06;11.20;99.90
47162;DHT22;32921;53.256;8.198;2023-02-21T15:42:39;11.10;99.90
47162;DHT22;32921;53.256;8.198;2023-02-21T15:45:15;11.10;99.90
47162;DHT22;32921;53.256;8.198;2023-02-21T15:47:42;11.10;99.90
47162;DHT22;32921;53.256;8.198;2023-02-21T15:50:29;11.00;99.90
47162;DHT22;32921;53.256;8.198;2023-02-21T15:52:55;11.00;99.90
47162;DHT22;32921;53.256;8.198;2023-02-21T15:55:34;10.90;99.90
47162;DHT22;32921;53.256;8.198;2023-02-21T16:00:36;10.90;99.90
47162;DHT22;32921;53.256;8.198;2023-02-21T16:08:57;10.80;99.90
47162;DHT22;32921;53.256;8.198;2023-02-21T16:11:26;10.80;99.90
47162;DHT22;32921;53.256;8.198;2023-02-21T16:14:01;10.70;99.90
47162;DHT22;32921;53.256;8.198;2023-02-21T16:16:32;10.70;99.90
47162;DHT22;32921;53.256;8.198;2023-02-21T16:18:58;10.60;99.90
47162;DHT22;32921;53.256;8.198;2023-02-21T16:21:27;10.60;99.90
47162;DHT22;32921;53.256;8.198;2023-02-21T16:23:53;10.60;99.90
47162;DHT22;32921;53.256;8.198;2023-02-21T16:26:22;10.60;99.90
47162;DHT22;32921;53.256;8.198;2023-02-21T16:28:52;10.60;99.90
47162;DHT22;32921;53.256;8.198;2023-02-21T16:31:29;10.60;99.90
47162;DHT22;32921;53.256;8.198;2023-02-21T16:33:55;10.50;99.90
47162;DHT22;32921;53.256;8.198;2023-02-21T16:36:31;10.50;99.90
47162;DHT22;32921;53.256;8.198;2023-02-21T16:38:58;10.50;99.90
47162;DHT22;32921;53.256;8.198;2023-02-21T16:41:24;10.50;99.90
47162;DHT22;32921;53.256;8.198;2023-02-21T16:43:50;10.40;99.90
47162;DHT22;32921;53.256;8.198;2023-02-21T16:46:23;10.40;99.90
47162;DHT22;32921;53.256;8.198;2023-02-21T16:48:49;10.50;99.90
47162;DHT22;32921;53.256;8.198;2023-02-21T16:51:16;10.50;99.90
47162;DHT22;32921;53.256;8.198;2023-02-21T16:53:43;10.40;99.90
47162;DHT22;32921;53.256;8.198;2023-02-21T16:56:10;10.40;99.90
47162;DHT22;32921;53.256;8.198;2023-02-21T16:58:39;10.30;99.90
47162;DHT22;32921;53.256;8.198;2023-02-21T17:01:14;10.40;99.90
47162;DHT22;32921;53.256;8.198;2023-02-21T17:03:40;10.30;99.90
47162;DHT22;32921;53.256;8.198;2023-02-21T17:06:06;10.30;99.90
47162;DHT22;32921;53.256;8.198;2023-02-21T17:08:32;10.30;99.90
47162;DHT22;32921;53.256;8.198;2023-02-21T17:10:58;10.30;99.90
47162;DHT22;32921;53.256;8.198;2023-02-21T17:13:24;10.30;99.90
47162;DHT22;32921;53.256;8.198;2023-02-21T17:15:50;10.30;99.90
47162;DHT22;32921;53.256;8.198;2023-02-21T17:18:15;10.20;99.90
47162;DHT22;32921;53.256;8.198;2023-02-21T17:20:41;10.20;99.90
47162;DHT22;32921;53.256;8.198;2023-02-21T17:23:07;10.20;99.90
47162;DHT22;32921;53.256;8.198;2023-02-21T17:25:32;10.20;99.90
47162;DHT22;32921;53.256;8.198;2023-02-21T17:28:01;10.20;99.90
47162;DHT22;32921;53.256;8.198;2023-02-21T17:30:26;10.10;99.90
47162;DHT22;32921;53.256;8.198;2023-02-21T17:32:52;10.10;99.90
47162;DHT22;32921;53.256;8.198;2023-02-21T17:35:20;10.10;99.90
47162;DHT22;32921;53.256;8.198;2023-02-21T17:37:47;10.10;99.90
47162;DHT22;32921;53.256;8.198;2023-02-21T17:40:15;10.10;99.90
47162;DHT22;32921;53.256;8.198;2023-02-21T17:42:41;10.00;99.90
47162;DHT22;32921;53.256;8.198;2023-02-21T17:45:07;10.00;99.90
47162;DHT22;32921;53.256;8.198;2023-02-21T17:47:33;10.00;99.90
47162;DHT22;32921;53.256;8.198;2023-02-21T17:50:00;10.00;99.90
47162;DHT22;32921;53.256;8.198;2023-02-21T17:52:26;10.00;99.90
47162;DHT22;32921;53.256;8.198;2023-02-21T17:54:52;10.00;99.90
47162;DHT22;32921;53.256;8.198;2023-02-21T17:57:18;10.00;99.90
47162;DHT22;32921;53.256;8.198;2023-02-21T17:59:44;9.90;99.90
47162;DHT22;32921;53.256;8.198;2023-02-21T18:02:10;9.90;99.90
47162;DHT22;32921;53.256;8.198;2023-02-21T18:04:36;9.90;99.90
47162;DHT22;32921;53.256;8.198;2023-02-21T18:07:02;9.80;99.90
47162;DHT22;32921;53.256;8.198;2023-02-21T18:09:28;9.90;99.90
47162;DHT22;32921;53.256;8.198;2023-02-21T18:11:55;9.90;99.90
47162;DHT22;32921;53.256;8.198;2023-02-21T18:14:22;9.80;99.90
47162;DHT22;32921;53.256;8.198;2023-02-21T18:16:49;9.80;99.90
47162;DHT22;32921;53.256;8.198;2023-02-21T18:19:15;9.80;99.90
47162;DHT22;32921;53.256;8.198;2023-02-21T18:21:41;9.80;99.90
47162;DHT22;32921;53.256;8.198;2023-02-21T18:24:10;9.70;99.90
47162;DHT22;32921;53.256;8.198;2023-02-21T18:26:36;9.80;99.90
47162;DHT22;32921;53.256;8.198;2023-02-21T18:29:04;9.80;99.90
47162;DHT22;32921;53.256;8.198;2023-02-21T18:31:30;9.70;99.90
47162;DHT22;32921;53.256;8.198;2023-02-21T18:33:55;9.70;99.90
47162;DHT22;32921;53.256;8.198;2023-02-21T18:36:21;9.70;99.90
47162;DHT22;32921;53.256;8.198;2023-02-21T18:38:47;9.60;99.90
47162;DHT22;32921;53.256;8.198;2023-02-21T18:41:16;9.60;99.90
47162;DHT22;32921;53.256;8.198;2023-02-21T18:43:42;9.60;99.90
47162;DHT22;32921;53.256;8.198;2023-02-21T18:46:13;9.60;99.90